KGXY/GXY METAR and TAF weather

Enter ICAO airport designator
Station Type Date Time Source
KGXY METAR 2022/05/23 15:37 UTC NOAA

KGXY 231537Z 10003KT 10SM BKN029 BKN065 OVC110 08/05 A3005 RMK AO2 RAE06 P0000 $


Station Type Date Time Source
KGXY Decoded METAR 2022/05/23 15:37 UTC NOAA

Greeley, Greeley-Weld County Airport, CO, United States (KGXY) 40-26N 104-38W
May 23, 2022 - 11:37 AM EDT / 2022.05.23 1537 UTC
Wind: from the E (100 degrees) at 3 MPH (3 KT):0
Visibility: 10 mile(s):0
Sky conditions: overcast
Precipitation last hour: A trace
Temperature: 46 F (8 C)
Dew Point: 41 F (5 C)
Relative Humidity: 81%
Pressure (altimeter): 30.05 in. Hg (1017 hPa)
ob: KGXY 231537Z 10003KT 10SM BKN029 BKN065 OVC110 08/05 A3005 RMK AO2 RAE06 P0000
cycle: 15

Station Type Date Time Source
KGXY TAF UTC NOAA

Error!

Example: see airport list